Hilo, HI

5:41 PM HST on August 24, 2016 (GMT -1000)
Hilo International | | Change Station
Active Advisory: Areal Flood Advisory Active Notice: Record Report

Elev 36 ft 19.72 °N, 155.05 °W | Updated 48 minutes ago

Overcast
Overcast
81 °F
Feels Like 85 °F
N
7
Wind Variable Wind from SE

Today
High -- | Low -- °F
--% Chance of Precip.
Yesterday
High -- | Low -- °F
Precip. -- in
Pressure 30.00 in
Visibility 10.0 miles
Clouds Few 2600 ft
Overcast 3800 ft
Heat Index 85 °F
Dew Point 71 °F
Humidity 72%
Rainfall 1.54 in
Snow Depth Not available.
6:03 AM 6:41 PM
Waning Gibbous, 50% visible
METAR PHTO 250253Z 14006KT 10SM FEW026 OVC038 27/22 A3000 RMK AO2 SLP158 T02720217 58002
Pressure 30.00 in
Visibility 10.0 miles
Clouds Few 2600 ft
Overcast 3800 ft
Heat Index 85 °F
Dew Point 71 °F
Humidity 72%
Rainfall 1.54 in
Snow Depth Not available.
6:03 AM 6:41 PM
Waning Gibbous, 50% visible
METAR PHTO 250253Z 14006KT 10SM FEW026 OVC038 27/22 A3000 RMK AO2 SLP158 T02720217 58002

10-Day Weather Forecast

Almanac

Astronomy

Aug. 24, 2016 Rise Set
Actual Time
Civil Twilight
Nautical Twilight
Astronomical Twilight
Moon
Length of Visible Light
Length of Day
Tomorrow will be .
, % of the Moon is Illuminated

Today's Extremes

State Highs State Lows

Community

WunderPhotos

Upload Photos

1,934,790 photos uploaded!

WunderBlog® & News

Nearby

Air Quality

  Air Quality AQ Index Pollutant
Not available.

Snow Depth

Station Depth Elevation

Earthquake Activity

City Distance Mag. Time & Date
Minimum magnitude displayed is 2.5.

Coastal Water Temperatures

Place Temperature

Stations

Nearby Weather Stations

Station Location Temp. Windchill Dew Point Humidity Wind Precip. Elev Updated Type
                   

Watches & Warnings

Areal Flood Advisory
Issued: 5:27 PM HST Aug. 24, 2016 – National Weather Service

The National Weather Service in Honolulu has issued a

* Flood Advisory for...
the island of Hawaii in Hawaii County

* until 630 PM HST

* at 526 PM HST... radar indicated heavy rain associated with a
thunderstorm between Honaunau and Kealakekua... and a nearby rain
gage just reported rain falling at a rate near 2 inches per hour.

* Locations in the advisory include but are not limited to...
Captain Cook... Honaunau... Kahaluu-Keauhou and Kealakekua.

Precautionary/preparedness actions...

Stay away from streams... drainage ditches and low lying areas prone
to flooding.

Rainfall and runoff will also cause hazardous driving conditions due
to ponding... reduced visibility and poor braking action.

Do not cross fast flowing or rising water in your vehicle... or on
foot. Turn around... don't drown.


This advisory may need to be extended beyond 630 PM HST if heavy rain
persists.

This advisory replaces the previously issued advisory that was in
effect for portions of the island of Hawaii in Hawaii County.

Lat... Lon 1936 15589 1944 15593 1948 15593 1949 15595
      1959 15597 1966 15601 1967 15576 1938 15572
      1933 15589


Birchard